Centerton, AR (72719)

12:35 AM CST on February 08, 2016 (GMT -0600)
Northwest Centerton | | Change Station
CLOSE
Current Station
Personal Weather Station
Location: Centerton, AR
Elevation: 1358 ft
Nearby Weather Stations

Elev 1358 ft 36.37 °N, 94.30 °W | Updated 11 minutes ago

Partly Cloudy
Partly Cloudy
38.3 °F
Feels Like 34 °F
N
6.3
Wind Variable Wind from NNW

Today
High -- | Low -- °F
--% Chance of Precip.
Yesterday
High -- | Low -- °F
Precip. -- in
Pressure 30.09 in
Visibility 10.0 miles
Clouds Clear
Windchill 34 °F
Dew Point 18 °F
Humidity 44%
Rainfall 0.00 in
Snow Depth Not available.
7:12 AM 5:50 PM
Waning Crescent, 0% visible
METAR KXNA 080553Z AUTO 32012G20KT 10SM CLR 04/M08 A3008 RMK AO2 PK WND 32027/0519 SLP187 T00441078 10083 20044 401170017 56001
Pressure 30.09 in
Visibility 10.0 miles
Clouds Clear
Windchill 34 °F
Dew Point 18 °F
Humidity 44%
Rainfall 0.00 in
Snow Depth Not available.
7:12 AM 5:50 PM
Waning Crescent, 0% visible
METAR KXNA 080553Z AUTO 32012G20KT 10SM CLR 04/M08 A3008 RMK AO2 PK WND 32027/0519 SLP187 T00441078 10083 20044 401170017 56001

10-Day Weather Forecast

Almanac

Astronomy

Feb. 08, 2016 Rise Set
Actual Time
Civil Twilight
Nautical Twilight
Astronomical Twilight
Moon
Length of Visible Light
Length of Day
Tomorrow will be .
, % of the Moon is Illuminated

Today's Extremes

State Highs State Lows

Community

WunderPhotos

Upload Photos

1,891,395 photos uploaded!

WunderBlog® & News

Nearby

Air Quality

  Air Quality AQ Index Pollutant
Not available.

Snow Depth

Station Depth Elevation

Earthquake Activity

City Distance Mag. Time & Date
Minimum magnitude displayed is 2.5.

Coastal Water Temperatures

Place Temperature

Stations

Nearby Weather Stations

Station Location Temp. Windchill Dew Point Humidity Wind Precip. Elev Updated Type
                   

Watches & Warnings

There are currently no watches in effect.